Time;durP1;ratioP1;P1;durP2;ratioP2;P2;SDS_P1;SDS_P2;PMS_P1;PMS_P2;Temp;Humidity;BMP_temperature;BMP_pressure;BME280_temperature;BME280_humidity;BME280_pressure;Samples;Min_cycle;Max_cycle;Signal;HPM_P1;HPM_P2
2024/02/02 00:00:23;;;;;;;18.08;4.40;;;5.00;99.90;;;;;;5055516;28;20265;-63
2024/02/02 00:02:50;;;;;;;17.40;4.60;;;5.00;99.90;;;;;;5054723;28;20318;-62
2024/02/02 00:05:17;;;;;;;9.70;3.90;;;5.00;99.90;;;;;;5055738;28;20197;-62
2024/02/02 00:07:44;;;;;;;11.10;3.85;;;5.10;99.90;;;;;;5056944;28;20200;-61
2024/02/02 00:10:12;;;;;;;13.35;4.25;;;5.10;99.90;;;;;;5059162;28;20273;-63
2024/02/02 00:12:39;;;;;;;15.07;3.58;;;5.10;99.90;;;;;;5061353;28;20297;-63
2024/02/02 00:15:07;;;;;;;16.25;4.90;;;5.20;99.90;;;;;;5063159;28;20229;-63
2024/02/02 00:17:34;;;;;;;14.50;4.30;;;5.20;99.90;;;;;;5063467;28;20218;-63
2024/02/02 00:20:00;;;;;;;13.95;3.60;;;5.20;99.90;;;;;;5066329;28;20233;-63
2024/02/02 00:22:27;;;;;;;16.05;4.75;;;5.20;99.90;;;;;;5065329;28;20253;-63
2024/02/02 00:24:54;;;;;;;10.75;3.88;;;5.20;99.90;;;;;;5067146;28;20244;-62
2024/02/02 00:27:22;;;;;;;17.05;4.18;;;5.20;99.90;;;;;;5063707;28;20280;-63
2024/02/02 00:29:49;;;;;;;16.10;4.93;;;5.20;99.90;;;;;;5068658;28;20224;-63
2024/02/02 00:32:16;;;;;;;16.00;4.20;;;5.20;99.90;;;;;;5058485;28;20309;-62
2024/02/02 00:34:43;;;;;;;14.88;3.92;;;5.20;99.90;;;;;;5059705;28;20202;-63
2024/02/02 00:37:10;;;;;;;19.10;4.85;;;5.20;99.90;;;;;;5059486;28;20236;-62
2024/02/02 00:39:37;;;;;;;13.20;4.38;;;5.30;99.90;;;;;;5060411;28;20233;-62
2024/02/02 00:42:05;;;;;;;12.70;3.80;;;5.30;99.90;;;;;;5059246;28;20256;-62
2024/02/02 00:44:33;;;;;;;14.63;5.18;;;5.30;99.90;;;;;;5059062;28;20687;-63
2024/02/02 00:47:00;;;;;;;14.10;4.72;;;5.30;99.90;;;;;;5058362;28;20292;-62
2024/02/02 00:49:26;;;;;;;15.25;4.15;;;5.30;99.90;;;;;;5058976;28;20292;-63
2024/02/02 00:51:53;;;;;;;13.20;4.63;;;5.30;99.90;;;;;;5060444;28;20249;-62
2024/02/02 00:54:20;;;;;;;19.05;5.10;;;5.30;99.90;;;;;;5061019;28;20251;-63
2024/02/02 00:56:47;;;;;;;14.25;4.38;;;5.30;99.90;;;;;;5060433;28;20610;-63
2024/02/02 00:59:14;;;;;;;10.88;4.32;;;5.30;99.90;;;;;;5059465;28;20249;-63
2024/02/02 01:01:42;;;;;;;15.27;5.57;;;5.30;99.90;;;;;;5059090;28;20316;-62
2024/02/02 01:04:09;;;;;;;7.57;4.40;;;5.30;99.90;;;;;;5058866;28;20240;-62
2024/02/02 01:06:36;;;;;;;16.23;5.40;;;5.30;99.90;;;;;;5058377;28;20217;-63
2024/02/02 01:09:03;;;;;;;13.05;4.22;;;5.30;99.90;;;;;;5057991;28;20525;-63
2024/02/02 01:11:30;;;;;;;11.65;4.97;;;5.30;99.90;;;;;;5058365;28;20271;-63
2024/02/02 01:13:57;;;;;;;18.73;4.85;;;5.40;99.90;;;;;;5058489;28;20197;-63
2024/02/02 01:16:24;;;;;;;19.05;5.05;;;5.40;99.90;;;;;;5059045;28;20572;-63
2024/02/02 01:18:52;;;;;;;15.43;5.70;;;5.40;99.90;;;;;;5058509;28;20289;-63
2024/02/02 01:21:19;;;;;;;13.50;5.25;;;5.40;99.90;;;;;;5057997;28;20236;-63
2024/02/02 01:23:46;;;;;;;15.52;6.35;;;5.40;99.90;;;;;;5057970;28;20300;-62
2024/02/02 01:26:13;;;;;;;10.95;5.20;;;5.40;99.90;;;;;;5058059;28;20229;-62
2024/02/02 01:28:40;;;;;;;12.93;5.10;;;5.30;99.90;;;;;;5058030;28;20651;-63
2024/02/02 01:31:07;;;;;;;14.52;5.82;;;5.30;99.90;;;;;;5057969;28;20237;-65
2024/02/02 01:33:34;;;;;;;18.60;6.30;;;5.30;99.90;;;;;;5057784;28;20293;-63
2024/02/02 01:36:02;;;;;;;13.20;5.05;;;5.30;99.90;;;;;;5057513;28;20292;-62
2024/02/02 01:38:29;;;;;;;15.88;5.68;;;5.30;99.90;;;;;;5062196;28;20253;-62
2024/02/02 01:40:56;;;;;;;12.05;5.97;;;5.40;99.90;;;;;;5067629;28;20231;-63
2024/02/02 01:43:24;;;;;;;16.65;6.20;;;5.30;99.90;;;;;;5065883;28;20283;-64
2024/02/02 01:45:51;;;;;;;14.63;5.88;;;5.30;99.90;;;;;;5064332;28;20201;-63
2024/02/02 01:48:18;;;;;;;18.08;6.03;;;5.40;99.90;;;;;;5062430;28;20197;-63
2024/02/02 01:50:45;;;;;;;17.00;6.75;;;5.30;99.90;;;;;;5059661;28;20284;-63
2024/02/02 01:53:13;;;;;;;21.80;6.80;;;5.40;99.90;;;;;;5056759;28;20679;-62
2024/02/02 01:55:40;;;;;;;12.13;5.13;;;5.40;99.90;;;;;;5056934;28;20234;-62
2024/02/02 01:58:07;;;;;;;16.00;5.85;;;5.40;99.90;;;;;;5057821;28;20286;-62
2024/02/02 02:00:34;;;;;;;17.77;5.85;;;5.40;99.90;;;;;;5056401;28;20206;-63
2024/02/02 02:03:01;;;;;;;14.73;5.72;;;5.40;99.90;;;;;;5056240;28;20264;-63
2024/02/02 02:05:28;;;;;;;14.18;5.72;;;5.40;99.90;;;;;;5055998;28;20259;-62
2024/02/02 02:07:55;;;;;;;17.58;5.90;;;5.40;99.90;;;;;;5056930;28;20222;-62
2024/02/02 02:10:24;;;;;;;12.70;5.20;;;5.40;99.90;;;;;;5057560;28;20212;-62
2024/02/02 02:12:51;;;;;;;15.40;5.05;;;5.40;99.90;;;;;;5058073;28;20292;-61
2024/02/02 02:15:18;;;;;;;22.50;6.30;;;5.40;99.90;;;;;;5057645;28;20206;-62
2024/02/02 02:17:46;;;;;;;11.95;5.32;;;5.40;99.90;;;;;;5059092;28;20237;-63
2024/02/02 02:20:15;;;;;;;13.15;6.15;;;5.40;99.90;;;;;;5058165;28;20201;-63
2024/02/02 02:22:43;;;;;;;15.45;6.03;;;5.40;99.90;;;;;;5056145;28;20312;-62
2024/02/02 02:25:10;;;;;;;13.52;4.85;;;5.40;99.90;;;;;;5056328;28;20237;-62
2024/02/02 02:27:37;;;;;;;11.25;5.00;;;5.40;99.90;;;;;;5055965;28;20261;-63
2024/02/02 02:30:05;;;;;;;14.10;5.55;;;5.40;99.90;;;;;;5056095;28;20202;-63
2024/02/02 02:32:32;;;;;;;10.15;4.28;;;5.40;99.90;;;;;;5056345;28;20253;-62
2024/02/02 02:34:58;;;;;;;15.02;6.13;;;5.40;99.90;;;;;;5056111;28;20237;-62
2024/02/02 02:37:25;;;;;;;10.13;4.45;;;5.40;99.90;;;;;;5056025;28;20202;-62
2024/02/02 02:39:53;;;;;;;17.98;5.10;;;5.40;99.90;;;;;;5055730;28;20655;-62
2024/02/02 02:42:20;;;;;;;17.50;4.93;;;5.40;99.90;;;;;;5056277;28;20226;-62
2024/02/02 02:44:47;;;;;;;13.80;5.28;;;5.40;99.90;;;;;;5056933;28;20667;-63
2024/02/02 02:47:14;;;;;;;12.60;4.60;;;5.40;99.90;;;;;;5055588;28;20292;-63
2024/02/02 02:49:41;;;;;;;14.98;5.00;;;5.40;99.90;;;;;;5056627;28;20265;-62
2024/02/02 02:52:08;;;;;;;13.38;5.43;;;5.50;99.90;;;;;;5054449;28;20308;-62
2024/02/02 02:54:35;;;;;;;9.52;4.63;;;5.40;99.90;;;;;;5055594;28;20241;-62
2024/02/02 02:57:03;;;;;;;14.80;4.50;;;5.40;99.90;;;;;;5055486;28;20206;-63
2024/02/02 02:59:32;;;;;;;9.98;4.75;;;5.40;99.90;;;;;;5054914;28;20786;-63
2024/02/02 03:01:59;;;;;;;15.43;4.82;;;5.50;99.90;;;;;;5056327;28;20272;-62
2024/02/02 03:04:26;;;;;;;15.68;6.05;;;5.50;99.90;;;;;;5055124;28;20668;-62
2024/02/02 03:06:53;;;;;;;16.65;6.15;;;5.50;99.90;;;;;;5056019;28;20203;-62
2024/02/02 03:09:20;;;;;;;14.90;5.30;;;5.50;99.90;;;;;;5056450;28;20201;-64
2024/02/02 03:11:47;;;;;;;15.57;5.22;;;5.50;99.90;;;;;;5056604;28;20230;-63
2024/02/02 03:14:16;;;;;;;17.33;5.35;;;5.50;99.90;;;;;;5057099;28;20286;-61
2024/02/02 03:16:42;;;;;;;15.20;5.55;;;5.50;99.90;;;;;;5055998;28;20197;-63
2024/02/02 03:19:09;;;;;;;12.45;5.03;;;5.50;99.90;;;;;;5055704;28;20313;-62
2024/02/02 03:21:36;;;;;;;18.30;4.90;;;5.50;99.90;;;;;;5055777;28;20670;-62
2024/02/02 03:24:04;;;;;;;11.45;5.15;;;5.50;99.90;;;;;;5056007;28;20201;-63
2024/02/02 03:26:31;;;;;;;9.50;4.82;;;5.50;99.90;;;;;;5055751;28;20296;-64
2024/02/02 03:28:57;;;;;;;11.68;4.97;;;5.50;99.90;;;;;;5055156;28;20248;-61
2024/02/02 03:31:26;;;;;;;13.77;4.57;;;5.50;99.90;;;;;;5055555;28;20284;-62
2024/02/02 03:33:53;;;;;;;22.30;5.85;;;5.50;99.90;;;;;;5056108;28;20265;-61
2024/02/02 03:36:19;;;;;;;14.07;4.70;;;5.50;99.90;;;;;;5057279;28;20202;-62
2024/02/02 03:38:46;;;;;;;13.60;4.75;;;5.50;99.90;;;;;;5057475;28;20245;-63
2024/02/02 03:41:14;;;;;;;17.15;5.45;;;5.50;99.90;;;;;;5057013;28;20632;-62
2024/02/02 03:43:41;;;;;;;13.05;4.05;;;5.50;99.90;;;;;;5055922;28;20206;-63
2024/02/02 03:46:08;;;;;;;12.55;5.00;;;5.60;99.90;;;;;;5055677;28;20300;-63
2024/02/02 03:48:36;;;;;;;14.93;5.35;;;5.60;99.90;;;;;;5055103;28;20198;-63
2024/02/02 03:51:03;;;;;;;9.60;4.10;;;5.60;99.90;;;;;;5054414;28;20204;-62
2024/02/02 03:53:30;;;;;;;12.88;4.38;;;5.70;99.90;;;;;;5054548;28;20226;-63
2024/02/02 03:55:58;;;;;;;12.00;4.53;;;5.70;99.90;;;;;;5054616;28;20292;-61
2024/02/02 03:58:24;;;;;;;6.90;4.32;;;5.70;99.90;;;;;;5054140;28;20232;-63
2024/02/02 04:00:51;;;;;;;14.60;4.40;;;5.70;99.90;;;;;;5054924;28;20691;-63
2024/02/02 04:03:19;;;;;;;11.02;3.92;;;5.70;99.90;;;;;;5055987;28;20229;-62
2024/02/02 04:05:47;;;;;;;13.10;5.85;;;5.70;99.90;;;;;;5056432;28;20275;-63
2024/02/02 04:08:14;;;;;;;11.27;5.18;;;5.70;99.90;;;;;;5061589;28;20202;-62
2024/02/02 04:13:05;;;;;;;7.43;5.10;;;5.70;99.90;;;;;;5111731;27;1541870;-62
2024/02/02 04:15:32;;;;;;;13.48;5.22;;;5.70;99.90;;;;;;5161543;27;20258;-63
2024/02/02 04:17:58;;;;;;;10.02;5.05;;;5.70;99.90;;;;;;5160301;27;20281;-63
2024/02/02 04:20:25;;;;;;;14.15;5.32;;;5.80;99.90;;;;;;5162390;27;20230;-62
2024/02/02 04:22:52;;;;;;;14.20;6.03;;;5.80;99.90;;;;;;5154992;27;20813;-63
2024/02/02 04:25:19;;;;;;;10.73;5.43;;;5.80;99.90;;;;;;5153961;27;20234;-63
2024/02/02 04:27:46;;;;;;;10.82;5.28;;;5.80;99.90;;;;;;5154095;27;20234;-61
2024/02/02 04:30:16;;;;;;;12.10;6.03;;;5.80;99.90;;;;;;5155803;27;20223;-63
2024/02/02 04:32:43;;;;;;;9.90;4.80;;;5.80;99.90;;;;;;5155404;27;20218;-62
2024/02/02 04:35:10;;;;;;;11.60;5.13;;;5.80;99.90;;;;;;5154006;27;20201;-63
2024/02/02 04:37:39;;;;;;;18.08;5.55;;;5.80;99.90;;;;;;5157057;27;20289;-62
2024/02/02 04:40:08;;;;;;;15.82;6.32;;;5.80;99.90;;;;;;5154885;27;20202;-62
2024/02/02 04:42:35;;;;;;;13.68;5.35;;;5.80;99.90;;;;;;5153623;27;20245;-63
2024/02/02 04:45:01;;;;;;;8.30;5.45;;;5.90;99.90;;;;;;5152745;27;20757;-63
2024/02/02 04:47:30;;;;;;;11.60;6.32;;;5.90;99.90;;;;;;5154372;27;20229;-63
2024/02/02 04:49:57;;;;;;;12.27;5.93;;;5.90;99.90;;;;;;5153238;27;20199;-63
2024/02/02 04:52:23;;;;;;;9.57;5.70;;;5.90;99.90;;;;;;5152248;27;20309;-62
2024/02/02 04:54:53;;;;;;;13.57;6.00;;;5.90;99.90;;;;;;5153716;27;20204;-63
2024/02/02 04:57:20;;;;;;;10.82;5.93;;;5.90;99.90;;;;;;5152668;27;20198;-63
2024/02/02 04:59:47;;;;;;;11.98;6.00;;;5.90;99.90;;;;;;5153066;27;20237;-64
2024/02/02 05:02:14;;;;;;;12.88;6.00;;;5.90;99.90;;;;;;5155540;22;20804;-59
2024/02/02 05:04:42;;;;;;;11.85;5.90;;;5.90;99.90;;;;;;5109734;28;20291;-60
2024/02/02 05:07:09;;;;;;;17.42;7.75;;;6.00;99.90;;;;;;5109726;28;20681;-59
2024/02/02 05:09:36;;;;;;;18.77;6.90;;;5.90;99.90;;;;;;5110020;28;20228;-58
2024/02/02 05:12:03;;;;;;;20.17;6.75;;;6.00;99.90;;;;;;5109519;28;20310;-59
2024/02/02 05:14:30;;;;;;;12.52;6.20;;;6.00;99.90;;;;;;5109925;28;20202;-60
2024/02/02 05:16:56;;;;;;;15.90;6.93;;;6.00;99.90;;;;;;5109783;28;20224;-58
2024/02/02 05:19:23;;;;;;;14.95;7.30;;;6.00;99.90;;;;;;5109538;28;20554;-59
2024/02/02 05:21:51;;;;;;;12.55;6.38;;;6.00;99.90;;;;;;5109512;28;20243;-59
2024/02/02 05:24:18;;;;;;;13.18;7.07;;;6.00;99.90;;;;;;5096389;28;20631;-59
2024/02/02 05:26:45;;;;;;;15.70;6.55;;;6.00;99.90;;;;;;5096352;28;20239;-59
2024/02/02 05:29:12;;;;;;;15.23;6.72;;;6.00;99.90;;;;;;5095379;28;20698;-59
2024/02/02 05:31:39;;;;;;;13.65;6.68;;;6.00;99.90;;;;;;5095940;28;20223;-58
2024/02/02 05:34:06;;;;;;;19.63;8.35;;;6.00;99.90;;;;;;5096262;28;20204;-60
2024/02/02 05:36:33;;;;;;;10.70;7.00;;;6.00;99.90;;;;;;5095347;28;20294;-59
2024/02/02 05:39:01;;;;;;;9.57;6.05;;;6.00;99.90;;;;;;5095875;28;20206;-59
2024/02/02 05:41:28;;;;;;;14.13;8.10;;;6.00;99.90;;;;;;5095570;28;20632;-59
2024/02/02 05:43:55;;;;;;;18.35;6.68;;;6.00;99.90;;;;;;5095179;28;20568;-59
2024/02/02 05:46:22;;;;;;;14.77;7.10;;;6.00;99.90;;;;;;5098233;28;20238;-59
2024/02/02 05:48:49;;;;;;;11.00;8.20;;;6.00;99.90;;;;;;5099771;28;20196;-59
2024/02/02 05:51:15;;;;;;;12.90;7.45;;;6.00;99.90;;;;;;5097497;28;20709;-59
2024/02/02 05:53:42;;;;;;;16.40;7.45;;;6.00;99.90;;;;;;5095478;28;20295;-59
2024/02/02 05:56:11;;;;;;;9.93;6.35;;;6.00;99.90;;;;;;5095403;28;20283;-59
2024/02/02 05:58:38;;;;;;;11.68;7.03;;;6.00;99.90;;;;;;5096103;28;20614;-59
2024/02/02 06:01:05;;;;;;;14.75;6.80;;;6.00;99.90;;;;;;5094670;28;20228;-58
2024/02/02 06:03:32;;;;;;;17.48;7.10;;;6.00;99.90;;;;;;5095148;28;20268;-59
2024/02/02 06:05:59;;;;;;;15.88;6.20;;;6.00;99.90;;;;;;5094857;28;20631;-60
2024/02/02 06:08:25;;;;;;;9.27;5.95;;;6.00;99.90;;;;;;5094883;28;20277;-59
2024/02/02 06:10:52;;;;;;;9.75;6.03;;;6.00;99.90;;;;;;5095077;28;20199;-60
2024/02/02 06:13:20;;;;;;;10.75;6.43;;;6.00;99.90;;;;;;5094453;28;20307;-60
2024/02/02 06:15:47;;;;;;;13.40;7.18;;;6.00;99.90;;;;;;5094526;28;20238;-59
2024/02/02 06:18:16;;;;;;;15.55;6.43;;;6.00;99.90;;;;;;5094487;28;20674;-59
2024/02/02 06:20:42;;;;;;;14.93;7.18;;;6.00;99.90;;;;;;5094949;28;20294;-59
2024/02/02 06:23:11;;;;;;;14.95;8.15;;;6.00;99.90;;;;;;5094534;28;20192;-59
2024/02/02 06:25:37;;;;;;;15.23;7.80;;;5.90;99.90;;;;;;5094918;28;20204;-59
2024/02/02 06:28:05;;;;;;;15.87;7.83;;;5.90;99.90;;;;;;5094798;28;20203;-59
2024/02/02 06:30:33;;;;;;;17.63;8.45;;;5.80;99.90;;;;;;5095190;28;20477;-58
2024/02/02 06:33:00;;;;;;;14.63;7.88;;;5.70;99.90;;;;;;5095915;28;20234;-60
2024/02/02 06:35:28;;;;;;;17.23;8.25;;;5.70;99.90;;;;;;5094915;28;20204;-60
2024/02/02 06:37:55;;;;;;;17.25;9.05;;;5.60;99.90;;;;;;5095954;28;20232;-60
2024/02/02 06:40:22;;;;;;;17.80;10.00;;;5.60;99.90;;;;;;5096119;28;20204;-60
2024/02/02 06:42:48;;;;;;;20.98;8.25;;;5.60;99.90;;;;;;5095075;28;20251;-59
2024/02/02 06:45:15;;;;;;;14.48;9.45;;;5.70;99.90;;;;;;5096007;28;20297;-59
2024/02/02 06:47:44;;;;;;;17.80;11.13;;;5.70;99.90;;;;;;5095496;28;20331;-60
2024/02/02 06:50:11;;;;;;;14.30;9.45;;;5.70;99.90;;;;;;5095458;28;20242;-61
2024/02/02 06:52:37;;;;;;;19.52;10.88;;;5.70;99.90;;;;;;5095563;28;20307;-60
2024/02/02 06:55:05;;;;;;;16.45;10.13;;;5.70;99.90;;;;;;5095621;28;20243;-59
2024/02/02 06:57:32;;;;;;;15.75;10.30;;;5.70;99.90;;;;;;5096657;28;20267;-59
2024/02/02 07:00:00;;;;;;;22.63;10.85;;;5.70;99.90;;;;;;5096456;28;20239;-59
2024/02/02 07:02:31;;;;;;;18.52;11.85;;;5.70;99.90;;;;;;5094277;28;20282;-59
2024/02/02 07:04:59;;;;;;;24.52;11.63;;;5.70;99.90;;;;;;5097443;28;20214;-59
2024/02/02 07:07:26;;;;;;;22.35;11.55;;;5.80;99.90;;;;;;5099486;28;20639;-59
2024/02/02 07:09:56;;;;;;;20.60;11.52;;;5.80;99.90;;;;;;5098345;28;20686;-59
2024/02/02 07:12:54;;;;;;;16.33;11.43;;;5.80;99.90;;;;;;5094761;28;20600;-59
2024/02/02 07:15:22;;;;;;;20.58;12.15;;;5.80;99.90;;;;;;5095552;28;20230;-59
2024/02/02 07:17:50;;;;;;;16.30;11.63;;;5.90;99.90;;;;;;5094798;28;20283;-59
2024/02/02 07:20:54;;;;;;;25.65;13.15;;;5.90;99.90;;;;;;5095215;28;20291;-59
2024/02/02 07:23:37;;;;;;;22.88;13.90;;;5.90;99.90;;;;;;5095821;28;20244;-59
2024/02/02 07:26:13;;;;;;;17.90;13.73;;;5.90;99.90;;;;;;5097002;28;20188;-59
2024/02/02 07:28:40;;;;;;;23.02;14.55;;;5.90;99.90;;;;;;5096866;28;20192;-59
2024/02/02 07:31:08;;;;;;;23.08;13.32;;;6.00;99.90;;;;;;5095530;28;20287;-60
2024/02/02 07:33:41;;;;;;;21.67;14.00;;;6.00;99.90;;;;;;5096530;28;20323;-60
2024/02/02 07:36:13;;;;;;;23.15;14.93;;;6.00;99.90;;;;;;5096640;28;20207;-60
2024/02/02 07:38:53;;;;;;;22.55;13.30;;;6.00;99.90;;;;;;5096303;28;20208;-60
2024/02/02 07:41:23;;;;;;;24.90;14.02;;;6.00;99.90;;;;;;5095924;28;20230;-59
2024/02/02 07:43:50;;;;;;;20.77;12.02;;;6.00;99.90;;;;;;5096032;28;20200;-59
2024/02/02 07:46:17;;;;;;;23.35;12.52;;;6.00;99.90;;;;;;5094114;28;20290;-60
2024/02/02 07:48:46;;;;;;;22.45;11.63;;;6.00;99.90;;;;;;5094093;28;20606;-60
2024/02/02 07:51:15;;;;;;;22.95;12.38;;;6.10;99.90;;;;;;5093720;28;20274;-59
2024/02/02 07:53:43;;;;;;;20.38;11.05;;;6.10;99.90;;;;;;5093114;28;20219;-60
2024/02/02 07:56:10;;;;;;;16.70;10.20;;;6.10;99.90;;;;;;5093551;28;20288;-61
2024/02/02 07:58:37;;;;;;;19.35;10.40;;;6.10;99.90;;;;;;5093803;28;20291;-60
2024/02/02 08:01:04;;;;;;;21.38;10.63;;;6.20;99.90;;;;;;5094187;28;20644;-60
2024/02/02 08:03:31;;;;;;;22.83;10.38;;;6.20;99.90;;;;;;5094316;28;20181;-60
2024/02/02 08:05:58;;;;;;;25.33;10.23;;;6.20;99.90;;;;;;5094564;28;20239;-60
2024/02/02 08:08:26;;;;;;;14.68;8.55;;;6.30;99.90;;;;;;5096235;28;20212;-60
2024/02/02 08:10:53;;;;;;;18.45;9.95;;;6.30;99.90;;;;;;5093490;28;20200;-60
2024/02/02 08:13:20;;;;;;;13.82;8.57;;;6.30;99.90;;;;;;5093146;28;20222;-60
2024/02/02 08:15:47;;;;;;;19.55;8.73;;;6.30;99.90;;;;;;5093771;28;20231;-59
2024/02/02 08:18:14;;;;;;;20.35;9.15;;;6.40;99.90;;;;;;5094043;28;20208;-60
2024/02/02 08:20:41;;;;;;;19.17;7.30;;;6.40;99.90;;;;;;5092427;28;20748;-60
2024/02/02 08:23:08;;;;;;;34.50;10.13;;;6.50;99.90;;;;;;5093026;28;20661;-60
2024/02/02 08:25:37;;;;;;;15.75;7.72;;;6.50;99.90;;;;;;5093920;28;20325;-60
2024/02/02 08:28:04;;;;;;;20.83;8.52;;;6.50;99.90;;;;;;5094260;28;20236;-59
2024/02/02 08:30:32;;;;;;;11.55;6.80;;;6.60;99.90;;;;;;5093433;28;20239;-60
2024/02/02 08:32:58;;;;;;;11.02;6.32;;;6.60;99.90;;;;;;5093138;28;20313;-59
2024/02/02 08:35:26;;;;;;;15.75;7.32;;;6.60;99.90;;;;;;5092774;28;20294;-59
2024/02/02 08:37:57;;;;;;;12.43;6.88;;;6.60;99.90;;;;;;5093023;28;20287;-62
2024/02/02 08:40:30;;;;;;;17.42;7.07;;;6.70;99.90;;;;;;5092404;28;20275;-59
2024/02/02 08:42:59;;;;;;;12.35;7.28;;;6.70;99.90;;;;;;5093554;28;20339;-60
2024/02/02 08:46:10;;;;;;;16.73;6.70;;;6.70;99.90;;;;;;5093313;28;20235;-58
2024/02/02 08:48:42;;;;;;;14.90;7.70;;;6.70;99.90;;;;;;5093119;28;20205;-60
2024/02/02 08:51:46;;;;;;;19.30;7.63;;;6.80;99.90;;;;;;5092660;28;20243;-58
2024/02/02 08:54:33;;;;;;;19.00;7.55;;;6.90;99.90;;;;;;5093383;28;20315;-60
2024/02/02 08:57:33;;;;;;;16.80;7.70;;;7.00;99.90;;;;;;5093770;28;20191;-60
2024/02/02 09:00:17;;;;;;;23.80;8.20;;;7.10;99.90;;;;;;5101189;28;20208;-61
2024/02/02 09:03:05;;;;;;;10.25;6.90;;;7.20;99.90;;;;;;5101770;28;20277;-60
2024/02/02 09:05:51;;;;;;;14.90;7.68;;;7.20;99.90;;;;;;5098038;28;20291;-60
2024/02/02 09:08:37;;;;;;;14.02;8.15;;;7.30;99.90;;;;;;5096397;28;20260;-59
2024/02/02 09:11:25;;;;;;;12.00;7.03;;;7.30;99.90;;;;;;5096221;28;20224;-61
2024/02/02 09:14:14;;;;;;;13.20;7.95;;;7.40;99.90;;;;;;5096398;28;20291;-60
2024/02/02 09:16:45;;;;;;;16.02;7.65;;;7.40;99.90;;;;;;5096070;28;20193;-59
2024/02/02 09:19:26;;;;;;;11.57;7.78;;;7.50;99.90;;;;;;5096139;28;20291;-59
2024/02/02 09:21:55;;;;;;;11.10;7.30;;;7.50;99.90;;;;;;5095782;28;20720;-60
2024/02/02 09:24:36;;;;;;;13.10;8.40;;;7.50;99.90;;;;;;5095941;28;20577;-60
2024/02/02 09:27:03;;;;;;;14.43;8.95;;;7.50;99.90;;;;;;5096229;28;20683;-59
2024/02/02 09:29:31;;;;;;;16.73;8.48;;;7.50;99.90;;;;;;5095668;28;20235;-60
2024/02/02 09:31:59;;;;;;;14.70;8.43;;;7.50;99.90;;;;;;5095900;28;20220;-60
2024/02/02 09:34:33;;;;;;;12.07;8.10;;;7.50;99.90;;;;;;5095513;28;20224;-60
2024/02/02 09:37:00;;;;;;;13.40;9.05;;;7.50;99.90;;;;;;5095834;28;20238;-59
2024/02/02 09:39:52;;;;;;;15.73;9.07;;;7.60;99.90;;;;;;5095556;28;20283;-59
2024/02/02 09:43:05;;;;;;;13.52;9.05;;;7.60;99.90;;;;;;5094978;28;20775;-59
2024/02/02 09:45:55;;;;;;;12.60;8.52;;;7.60;99.90;;;;;;5013071;28;20206;-62
2024/02/02 09:48:44;;;;;;;15.73;8.57;;;7.60;99.90;;;;;;5095326;28;20275;-60
2024/02/02 09:51:22;;;;;;;18.33;8.60;;;7.60;99.90;;;;;;5095241;28;20267;-59
2024/02/02 09:54:07;;;;;;;17.33;8.05;;;7.60;99.90;;;;;;5095274;28;20291;-60
2024/02/02 09:56:45;;;;;;;13.98;8.50;;;7.60;99.90;;;;;;5095570;28;20271;-60
2024/02/02 09:59:22;;;;;;;15.25;8.00;;;7.70;99.90;;;;;;5095602;28;20277;-60
2024/02/02 10:02:06;;;;;;;16.90;8.07;;;7.70;99.90;;;;;;5095284;28;20660;-60
2024/02/02 10:04:49;;;;;;;15.60;8.50;;;7.80;99.90;;;;;;5096009;28;20181;-60
2024/02/02 10:07:30;;;;;;;11.18;7.70;;;7.80;99.90;;;;;;5095956;28;20643;-60
2024/02/02 10:10:36;;;;;;;20.90;7.65;;;7.90;99.90;;;;;;5094668;28;20188;-58
2024/02/02 10:13:16;;;;;;;17.23;7.90;;;7.90;99.90;;;;;;5094930;28;20302;-60
2024/02/02 10:16:04;;;;;;;12.18;7.93;;;7.90;99.90;;;;;;5094429;28;20669;-60
2024/02/02 10:19:08;;;;;;;13.27;7.95;;;7.90;99.90;;;;;;5092077;28;20201;-59
2024/02/02 10:21:47;;;;;;;23.70;9.07;;;7.90;99.90;;;;;;5052178;28;20226;-60
2024/02/02 10:24:32;;;;;;;15.20;8.05;;;8.00;99.90;;;;;;5094731;28;20198;-61
2024/02/02 10:27:32;;;;;;;15.55;8.65;;;8.00;99.90;;;;;;5094401;28;20385;-60
2024/02/02 10:30:07;;;;;;;16.30;8.13;;;8.00;99.90;;;;;;5094025;28;20195;-60
2024/02/02 10:33:05;;;;;;;17.30;8.77;;;8.00;99.90;;;;;;5093662;28;20222;-60
2024/02/02 10:35:39;;;;;;;17.33;8.73;;;8.00;99.90;;;;;;5094012;28;20578;-60
2024/02/02 10:38:24;;;;;;;11.07;7.82;;;7.90;99.90;;;;;;5093917;28;20184;-61
2024/02/02 10:41:01;;;;;;;16.90;8.20;;;7.90;99.90;;;;;;5093917;28;20289;-60
2024/02/02 10:43:45;;;;;;;13.02;9.20;;;7.80;99.90;;;;;;5094218;28;20662;-59
2024/02/02 10:46:27;;;;;;;15.75;8.98;;;7.80;99.90;;;;;;5094389;28;20181;-61
2024/02/02 10:49:30;;;;;;;14.43;8.25;;;7.80;99.90;;;;;;5094444;28;20216;-60
2024/02/02 10:52:09;;;;;;;20.85;10.52;;;7.80;99.90;;;;;;5051960;28;20303;-60
2024/02/02 10:54:59;;;;;;;20.58;10.32;;;7.80;99.90;;;;;;5095066;28;20294;-60
2024/02/02 10:57:31;;;;;;;12.07;9.40;;;7.80;99.90;;;;;;5093956;28;20237;-59
2024/02/02 11:00:08;;;;;;;21.58;9.65;;;7.80;99.90;;;;;;5093708;28;20220;-59
2024/02/02 11:02:51;;;;;;;16.65;9.93;;;7.70;99.90;;;;;;5094177;28;20227;-59
2024/02/02 11:05:25;;;;;;;17.80;9.82;;;7.70;99.90;;;;;;5093970;28;20191;-61
2024/02/02 11:07:56;;;;;;;17.42;9.95;;;7.80;99.90;;;;;;5094935;28;20700;-60
2024/02/02 11:10:32;;;;;;;16.60;9.93;;;7.80;99.90;;;;;;5095213;28;20253;-61
2024/02/02 11:13:09;;;;;;;13.18;9.80;;;7.80;99.90;;;;;;5094527;28;20220;-60
2024/02/02 11:15:50;;;;;;;21.20;10.50;;;7.90;99.90;;;;;;5094489;28;20275;-59
2024/02/02 11:18:47;;;;;;;19.23;10.88;;;7.90;99.90;;;;;;5094169;28;20188;-59
2024/02/02 11:21:32;;;;;;;21.38;10.25;;;8.00;99.90;;;;;;5093122;28;20757;-61
2024/02/02 11:24:08;;;;;;;14.68;10.13;;;8.00;99.90;;;;;;5094100;28;20189;-60
2024/02/02 11:26:42;;;;;;;13.75;8.90;;;8.00;99.90;;;;;;5093930;28;20190;-59
2024/02/02 11:29:15;;;;;;;16.38;9.73;;;8.00;99.90;;;;;;5093625;28;20275;-61
2024/02/02 11:31:51;;;;;;;17.88;10.00;;;8.00;99.90;;;;;;5094547;28;20628;-60
2024/02/02 11:34:26;;;;;;;20.95;10.82;;;8.00;99.90;;;;;;5093514;28;20204;-59
2024/02/02 11:37:06;;;;;;;12.98;9.82;;;8.00;99.90;;;;;;5093729;28;20212;-60
2024/02/02 11:39:43;;;;;;;14.82;9.23;;;8.00;99.90;;;;;;5094013;28;20188;-60
2024/02/02 11:42:14;;;;;;;19.13;11.77;;;8.00;99.90;;;;;;5093992;28;20286;-57
2024/02/02 11:44:43;;;;;;;19.63;9.48;;;8.10;99.90;;;;;;5095018;28;20649;-59
2024/02/02 11:47:11;;;;;;;16.02;9.93;;;8.10;99.90;;;;;;5095142;28;20247;-60
2024/02/02 11:49:46;;;;;;;14.70;8.65;;;8.10;99.90;;;;;;5094375;28;20240;-60
2024/02/02 11:52:20;;;;;;;19.20;9.75;;;8.10;99.90;;;;;;5094808;28;20246;-60
2024/02/02 11:54:55;;;;;;;13.63;9.77;;;8.20;99.90;;;;;;5093793;28;20454;-60
2024/02/02 11:57:25;;;;;;;19.20;9.85;;;8.20;99.90;;;;;;5093050;28;20184;-59
2024/02/02 11:59:53;;;;;;;18.92;9.98;;;8.30;99.90;;;;;;5099328;28;20226;-60
2024/02/02 12:02:38;;;;;;;16.20;10.40;;;8.30;99.90;;;;;;5100205;28;20296;-61
2024/02/02 12:05:18;;;;;;;15.68;9.50;;;8.30;99.90;;;;;;5093540;28;20208;-60
2024/02/02 12:07:54;;;;;;;14.80;9.80;;;8.30;99.90;;;;;;5094425;28;20642;-60
2024/02/02 12:10:24;;;;;;;12.40;9.90;;;8.30;99.90;;;;;;5093813;28;20184;-60
2024/02/02 12:13:00;;;;;;;19.00;11.27;;;8.30;99.90;;;;;;5092813;28;20227;-61
2024/02/02 12:15:27;;;;;;;14.25;10.38;;;8.30;99.90;;;;;;5092927;28;20299;-60
2024/02/02 12:17:54;;;;;;;13.43;9.30;;;8.30;99.90;;;;;;5093038;28;20200;-62
2024/02/02 12:20:21;;;;;;;16.08;10.05;;;8.30;99.90;;;;;;5093027;28;20200;-61
2024/02/02 12:22:50;;;;;;;19.40;10.25;;;8.40;99.90;;;;;;5092997;28;20259;-60
2024/02/02 12:25:19;;;;;;;18.17;10.02;;;8.40;99.90;;;;;;5093415;28;20193;-60
2024/02/02 12:27:45;;;;;;;20.58;9.98;;;8.50;99.90;;;;;;5094489;28;20284;-60
2024/02/02 12:30:16;;;;;;;12.88;9.70;;;8.50;99.90;;;;;;5098056;28;20257;-60
2024/02/02 12:32:53;;;;;;;18.45;11.00;;;8.50;99.90;;;;;;5097139;28;20219;-61
2024/02/02 12:35:22;;;;;;;19.73;11.07;;;8.50;99.90;;;;;;5097184;28;20673;-61
2024/02/02 12:37:50;;;;;;;17.73;10.60;;;8.50;99.90;;;;;;5097582;28;20228;-60
2024/02/02 12:40:19;;;;;;;17.00;11.10;;;8.50;99.90;;;;;;5097971;28;20200;-61
2024/02/02 12:42:46;;;;;;;18.60;10.73;;;8.50;99.90;;;;;;5096913;28;20754;-59
2024/02/02 12:45:15;;;;;;;21.05;11.65;;;8.50;99.90;;;;;;5097099;28;20445;-57
2024/02/02 12:47:43;;;;;;;20.05;11.68;;;8.60;99.90;;;;;;5096911;28;20207;-61
2024/02/02 12:50:15;;;;;;;23.58;10.52;;;8.60;99.90;;;;;;5096680;28;20630;-60
2024/02/02 12:52:43;;;;;;;21.98;11.73;;;8.60;99.90;;;;;;5096701;28;20299;-60
2024/02/02 12:55:10;;;;;;;15.20;10.05;;;8.60;99.90;;;;;;5096439;28;20220;-59
2024/02/02 12:57:37;;;;;;;15.18;10.23;;;8.70;99.90;;;;;;5096203;28;20243;-60
2024/02/02 13:00:05;;;;;;;18.85;11.98;;;8.70;99.90;;;;;;5096768;28;20239;-61
2024/02/02 13:02:33;;;;;;;17.38;11.63;;;8.70;99.90;;;;;;5096705;28;20315;-61
2024/02/02 13:05:00;;;;;;;16.38;11.00;;;8.80;99.90;;;;;;5096510;28;20193;-60
2024/02/02 13:07:27;;;;;;;18.52;12.00;;;8.90;99.90;;;;;;5096126;28;20287;-60